createdAt,value
2017-12-22T00:00:28.547Z,8.90
2017-12-22T00:03:03.626Z,8.90
2017-12-22T00:05:33.978Z,8.90
2017-12-22T00:08:10.583Z,8.80
2017-12-22T00:10:46.307Z,8.70
2017-12-22T00:13:17.077Z,8.60
2017-12-22T00:15:49.696Z,8.50
2017-12-22T00:18:19.194Z,8.40
2017-12-22T00:20:51.008Z,8.30
2017-12-22T00:23:24.343Z,8.30
2017-12-22T00:25:57.309Z,8.30
2017-12-22T00:28:31.956Z,8.30
2017-12-22T00:31:05.719Z,8.20
2017-12-22T00:33:38.215Z,8.30
2017-12-22T00:36:10.701Z,8.30
2017-12-22T00:38:46.910Z,8.30
2017-12-22T00:41:20.983Z,8.20
2017-12-22T00:43:56.032Z,8.10
2017-12-22T00:46:29.434Z,8.00
2017-12-22T00:49:26.929Z,8.20
2017-12-22T00:51:58.686Z,8.30
2017-12-22T00:54:30.046Z,8.50
2017-12-22T00:57:01.810Z,8.50
2017-12-22T00:59:31.738Z,8.60
2017-12-22T01:02:03.022Z,8.70
2017-12-22T01:11:40.500Z,8.60
2017-12-22T01:14:14.928Z,8.60
2017-12-22T01:16:53.447Z,8.50
2017-12-22T01:19:29.642Z,8.50
2017-12-22T01:22:07.693Z,8.50
2017-12-22T01:24:40.733Z,8.50
2017-12-22T01:27:18.550Z,8.60
2017-12-22T01:30:03.073Z,8.60
2017-12-22T01:32:37.095Z,8.50
2017-12-22T01:35:32.385Z,8.50
2017-12-22T01:38:11.015Z,8.50
2017-12-22T01:40:45.307Z,8.50
2017-12-22T01:43:15.242Z,8.60
2017-12-22T01:45:48.094Z,8.70
2017-12-22T01:48:17.713Z,8.70
2017-12-22T01:50:54.619Z,8.80
2017-12-22T01:53:26.891Z,8.80
2017-12-22T01:56:03.071Z,8.90
2017-12-22T01:58:37.873Z,8.90
2017-12-22T02:01:11.578Z,8.90
2017-12-22T02:03:44.969Z,9.00
2017-12-22T02:06:20.199Z,9.00
2017-12-22T02:08:54.337Z,9.00
2017-12-22T02:11:33.940Z,9.00
2017-12-22T02:14:05.918Z,9.00
2017-12-22T02:16:46.416Z,9.10
2017-12-22T02:19:20.449Z,9.00
2017-12-22T02:21:57.416Z,9.10
2017-12-22T02:24:32.373Z,9.20
2017-12-22T02:27:06.023Z,9.20
2017-12-22T02:29:42.295Z,9.20
2017-12-22T02:32:15.672Z,9.30
2017-12-22T02:38:50.017Z,9.30
2017-12-22T02:41:28.484Z,9.30
2017-12-22T02:43:59.256Z,9.30
2017-12-22T02:46:32.573Z,9.30
2017-12-22T02:49:06.375Z,9.30
2017-12-22T02:51:39.652Z,9.40
2017-12-22T02:54:08.888Z,9.40
2017-12-22T02:56:39.085Z,9.40
2017-12-22T02:59:13.598Z,9.40
2017-12-22T03:01:47.354Z,9.40
2017-12-22T03:04:21.732Z,9.40
2017-12-22T03:14:20.164Z,9.40
2017-12-22T03:16:51.301Z,9.40
2017-12-22T03:19:22.350Z,9.40
2017-12-22T03:32:36.942Z,9.40
2017-12-22T03:35:07.785Z,9.50
2017-12-22T03:38:02.373Z,9.50
2017-12-22T03:40:38.043Z,9.50
2017-12-22T03:43:07.713Z,9.50
2017-12-22T03:45:38.593Z,9.50
2017-12-22T03:48:10.476Z,9.50
2017-12-22T03:50:42.949Z,9.50
2017-12-22T03:53:14.929Z,9.50
2017-12-22T03:55:49.489Z,9.50
2017-12-22T03:58:21.365Z,9.50
2017-12-22T04:00:52.453Z,9.50
2017-12-22T04:03:25.887Z,9.50
2017-12-22T04:05:57.706Z,9.50
2017-12-22T04:08:31.029Z,9.60
2017-12-22T04:11:06.626Z,9.60
2017-12-22T04:13:43.916Z,9.60
2017-12-22T04:16:17.905Z,9.60
2017-12-22T04:18:55.877Z,9.70
2017-12-22T04:25:11.950Z,9.80
2017-12-22T04:27:49.151Z,9.70
2017-12-22T04:30:24.729Z,9.60
2017-12-22T04:33:02.533Z,9.70
2017-12-22T04:35:38.383Z,9.60
2017-12-22T04:42:09.191Z,9.60
2017-12-22T04:44:40.211Z,9.50
2017-12-22T04:47:13.304Z,9.50
2017-12-22T04:49:53.320Z,9.50
2017-12-22T04:52:24.664Z,9.60
2017-12-22T04:54:56.578Z,9.60
2017-12-22T04:57:27.976Z,9.60
2017-12-22T05:00:02.588Z,9.60
2017-12-22T05:02:40.660Z,9.60
2017-12-22T05:05:15.438Z,9.60
2017-12-22T05:08:05.215Z,9.60
2017-12-22T05:10:35.541Z,9.60
2017-12-22T05:13:07.915Z,9.60
2017-12-22T05:15:38.588Z,9.60
2017-12-22T05:18:10.088Z,9.70
2017-12-22T05:20:42.149Z,9.70
2017-12-22T05:23:17.823Z,9.70
2017-12-22T05:25:53.385Z,9.70
2017-12-22T05:28:32.018Z,9.70
2017-12-22T05:31:09.551Z,9.80
2017-12-22T05:33:40.815Z,9.80
2017-12-22T05:36:18.190Z,9.80
2017-12-22T05:42:46.733Z,9.70
2017-12-22T05:45:18.239Z,9.70
2017-12-22T05:47:48.988Z,9.70
2017-12-22T05:50:19.931Z,9.70
2017-12-22T05:56:19.336Z,9.60
2017-12-22T05:58:52.825Z,9.60
2017-12-22T06:01:29.410Z,9.60
2017-12-22T06:04:03.511Z,9.60
2017-12-22T06:06:44.444Z,9.60
2017-12-22T06:09:35.151Z,9.60
2017-12-22T06:12:04.265Z,9.60
2017-12-22T06:14:33.814Z,9.50
2017-12-22T06:17:07.570Z,9.50
2017-12-22T06:19:45.695Z,9.40
2017-12-22T06:22:19.568Z,9.60
2017-12-22T06:28:12.030Z,9.60
2017-12-22T06:30:45.113Z,9.60
2017-12-22T06:33:15.786Z,9.60
2017-12-22T06:35:52.157Z,9.50
2017-12-22T06:42:06.185Z,9.50
2017-12-22T06:44:38.491Z,9.40
2017-12-22T06:47:12.284Z,9.40
2017-12-22T06:49:49.209Z,9.40
2017-12-22T06:52:24.720Z,9.40
2017-12-22T06:54:59.999Z,9.40
2017-12-22T06:57:36.925Z,9.40
2017-12-22T07:00:07.351Z,9.40
2017-12-22T07:02:40.739Z,9.50
2017-12-22T07:05:17.453Z,9.50
2017-12-22T07:07:53.001Z,9.50
2017-12-22T07:10:27.722Z,9.50
2017-12-22T07:13:00.355Z,9.50
2017-12-22T07:15:37.142Z,9.50
2017-12-22T07:18:14.646Z,9.50
2017-12-22T07:20:47.751Z,9.50
2017-12-22T07:23:16.077Z,9.60
2017-12-22T07:25:49.114Z,9.60
2017-12-22T07:28:21.929Z,9.70
2017-12-22T07:30:57.993Z,9.70
2017-12-22T07:33:28.525Z,9.70
2017-12-22T07:35:58.822Z,9.70
2017-12-22T07:38:30.064Z,9.70
2017-12-22T07:54:42.989Z,9.70
2017-12-22T07:57:11.907Z,9.60
2017-12-22T07:59:42.730Z,9.60
2017-12-22T08:02:14.329Z,9.60
2017-12-22T08:04:49.056Z,9.60
2017-12-22T08:07:21.385Z,9.60
2017-12-22T08:10:15.773Z,9.60
2017-12-22T08:13:20.041Z,9.50
2017-12-22T08:15:49.789Z,9.50
2017-12-22T08:18:22.304Z,9.60
2017-12-22T08:20:54.781Z,9.60
2017-12-22T08:23:28.957Z,9.60
2017-12-22T08:26:38.782Z,9.60
2017-12-22T08:29:08.138Z,9.60
2017-12-22T08:31:40.353Z,9.60
2017-12-22T08:34:10.263Z,9.70
2017-12-22T08:36:44.384Z,9.80
2017-12-22T08:39:17.459Z,9.80
2017-12-22T08:41:51.318Z,9.70
2017-12-22T08:44:26.855Z,9.70
2017-12-22T08:47:03.760Z,9.70
2017-12-22T08:49:40.755Z,9.70
2017-12-22T08:52:14.935Z,9.80
2017-12-22T08:54:49.085Z,9.80
2017-12-22T09:18:07.159Z,10.20
2017-12-22T09:20:37.613Z,10.20
2017-12-22T09:23:08.749Z,10.20
2017-12-22T09:25:40.663Z,10.30
2017-12-22T09:38:42.672Z,10.40
2017-12-22T09:41:21.300Z,10.50
2017-12-22T09:43:51.489Z,10.50
2017-12-22T09:46:23.863Z,10.70
2017-12-22T09:48:58.592Z,10.70
2017-12-22T09:51:32.535Z,10.70
2017-12-22T09:54:07.319Z,10.70
2017-12-22T09:57:18.350Z,10.70
2017-12-22T09:59:48.640Z,10.70
2017-12-22T10:02:26.203Z,10.70
2017-12-22T10:05:07.748Z,10.70
2017-12-22T10:07:40.471Z,10.70
2017-12-22T10:10:16.564Z,10.70
2017-12-22T10:12:52.420Z,10.70
2017-12-22T10:15:45.995Z,10.80
2017-12-22T10:18:16.581Z,10.80
2017-12-22T10:20:46.667Z,10.80
2017-12-22T10:23:17.547Z,10.90
2017-12-22T10:25:48.400Z,11.00
2017-12-22T10:35:04.617Z,11.20
2017-12-22T10:37:38.193Z,11.20
2017-12-22T10:40:13.276Z,11.20
2017-12-22T10:46:08.369Z,11.20
2017-12-22T10:48:38.241Z,11.30
2017-12-22T10:51:17.689Z,11.40
2017-12-22T10:53:49.227Z,11.40
2017-12-22T10:56:22.917Z,11.30
2017-12-22T11:02:53.810Z,11.40
2017-12-22T11:05:26.899Z,11.50
2017-12-22T11:07:57.652Z,11.60
2017-12-22T11:10:26.977Z,11.60
2017-12-22T11:17:07.512Z,11.80
2017-12-22T11:19:42.856Z,11.80
2017-12-22T11:22:12.418Z,11.70
2017-12-22T11:24:46.945Z,11.60
2017-12-22T11:27:17.451Z,11.60
2017-12-22T11:33:09.826Z,11.60
2017-12-22T11:35:42.165Z,11.50
2017-12-22T11:38:11.381Z,11.50
2017-12-22T11:40:48.875Z,11.50
2017-12-22T11:50:12.610Z,11.60
2017-12-22T11:52:47.812Z,11.70
2017-12-22T11:55:20.169Z,11.70
2017-12-22T11:57:51.899Z,11.60
2017-12-22T12:01:04.457Z,11.60
2017-12-22T12:03:39.515Z,11.60
2017-12-22T12:06:16.198Z,11.70
2017-12-22T12:08:59.510Z,11.70
2017-12-22T12:11:40.367Z,11.80
2017-12-22T12:14:34.300Z,11.80
2017-12-22T12:17:07.211Z,11.80
2017-12-22T12:19:41.495Z,11.90
2017-12-22T12:22:14.757Z,11.70
2017-12-22T12:24:46.786Z,11.70
2017-12-22T12:27:15.845Z,11.70
2017-12-22T12:29:48.325Z,11.60
2017-12-22T12:32:21.361Z,11.60
2017-12-22T12:34:53.099Z,11.60
2017-12-22T12:37:22.095Z,11.60
2017-12-22T12:39:52.494Z,11.60
2017-12-22T12:42:23.927Z,11.60
2017-12-22T12:45:24.510Z,11.60
2017-12-22T12:47:57.307Z,11.60
2017-12-22T12:50:31.189Z,11.60
2017-12-22T12:53:06.392Z,11.70
2017-12-22T12:55:35.778Z,11.80
2017-12-22T12:58:07.070Z,11.90
2017-12-22T13:00:39.570Z,12.00
2017-12-22T13:03:13.042Z,12.00
2017-12-22T13:05:54.721Z,11.90
2017-12-22T13:08:27.746Z,11.90
2017-12-22T13:11:00.805Z,11.90
2017-12-22T13:13:31.141Z,11.90
2017-12-22T13:16:37.648Z,11.90
2017-12-22T13:19:34.438Z,12.00
2017-12-22T13:22:03.719Z,12.00
2017-12-22T13:24:32.066Z,12.00
2017-12-22T13:27:01.977Z,11.90
2017-12-22T13:29:33.733Z,12.00
2017-12-22T13:32:09.969Z,12.00
2017-12-22T13:34:45.622Z,12.00
2017-12-22T13:37:19.714Z,12.00
2017-12-22T13:39:53.771Z,12.00
2017-12-22T13:42:30.304Z,12.10
2017-12-22T13:45:07.689Z,12.20
2017-12-22T13:47:45.055Z,12.30
2017-12-22T13:50:18.037Z,12.30
2017-12-22T13:52:52.736Z,12.30
2017-12-22T13:55:30.549Z,12.30
2017-12-22T13:58:03.372Z,12.20
2017-12-22T14:01:12.614Z,12.10
2017-12-22T14:03:45.171Z,12.00
2017-12-22T14:06:14.000Z,12.00
2017-12-22T14:08:44.972Z,12.00
2017-12-22T14:11:19.202Z,11.90
2017-12-22T14:13:54.357Z,11.80
2017-12-22T14:16:49.538Z,11.80
2017-12-22T14:19:23.685Z,11.70
2017-12-22T14:21:57.279Z,11.70
2017-12-22T14:24:30.240Z,11.60
2017-12-22T14:27:01.241Z,11.60
2017-12-22T14:29:39.279Z,11.60
2017-12-22T14:32:16.773Z,11.50
2017-12-22T14:34:51.059Z,11.50
2017-12-22T14:37:25.094Z,11.40
2017-12-22T14:40:27.792Z,11.40
2017-12-22T14:43:02.476Z,11.40
2017-12-22T14:45:45.046Z,11.40
2017-12-22T14:48:19.334Z,11.40
2017-12-22T14:50:58.687Z,11.40
2017-12-22T14:53:35.450Z,11.40
2017-12-22T14:56:10.780Z,11.30
2017-12-22T14:58:46.684Z,11.30
2017-12-22T15:04:59.638Z,11.20
2017-12-22T15:07:35.507Z,11.30
2017-12-22T15:10:06.691Z,11.20
2017-12-22T15:12:37.868Z,11.20
2017-12-22T15:15:11.036Z,11.20
2017-12-22T15:18:01.431Z,11.10
2017-12-22T15:20:31.965Z,11.10
2017-12-22T15:23:03.519Z,11.10
2017-12-22T15:25:34.902Z,11.10
2017-12-22T15:28:09.368Z,11.00
2017-12-22T15:30:41.321Z,11.00
2017-12-22T15:36:39.865Z,11.00
2017-12-22T15:39:11.073Z,10.90
2017-12-22T15:41:49.017Z,10.90
2017-12-22T15:44:19.542Z,10.90
2017-12-22T15:50:48.114Z,10.80
2017-12-22T15:53:18.736Z,10.80
2017-12-22T15:55:49.552Z,10.70
2017-12-22T15:58:21.216Z,10.70
2017-12-22T16:00:55.596Z,10.70
2017-12-22T16:03:29.785Z,10.70
2017-12-22T16:06:05.216Z,10.70
2017-12-22T16:08:35.692Z,10.70
2017-12-22T16:11:12.521Z,10.60
2017-12-22T16:13:42.098Z,10.60
2017-12-22T16:16:13.021Z,10.60
2017-12-22T16:18:42.678Z,10.60
2017-12-22T16:21:17.516Z,10.60
2017-12-22T16:23:52.205Z,10.60
2017-12-22T16:26:26.698Z,10.60
2017-12-22T16:28:56.682Z,10.50
2017-12-22T16:31:32.208Z,10.50
2017-12-22T16:38:04.724Z,10.50
2017-12-22T16:40:33.409Z,10.50
2017-12-22T16:43:04.903Z,10.60
2017-12-22T16:45:38.982Z,10.50
2017-12-22T16:48:48.730Z,10.50
2017-12-22T16:51:20.810Z,10.60
2017-12-22T16:53:52.909Z,10.70
2017-12-22T16:56:26.716Z,10.70
2017-12-22T16:59:01.223Z,10.60
2017-12-22T17:01:30.816Z,10.70
2017-12-22T17:04:02.035Z,10.70
2017-12-22T17:06:33.414Z,10.60
2017-12-22T17:09:05.410Z,10.50
2017-12-22T17:11:37.489Z,10.50
2017-12-22T17:14:07.160Z,10.40
2017-12-22T17:16:38.482Z,10.40
2017-12-22T17:19:10.095Z,10.40
2017-12-22T17:21:41.011Z,10.30
2017-12-22T17:24:10.712Z,10.30
2017-12-22T17:26:40.436Z,10.30
2017-12-22T17:29:09.610Z,10.20
2017-12-22T17:31:43.885Z,10.20
2017-12-22T17:34:17.507Z,10.20
2017-12-22T17:36:52.849Z,10.20
2017-12-22T17:39:25.558Z,10.20
2017-12-22T17:42:00.365Z,10.20
2017-12-22T17:44:34.884Z,10.20
2017-12-22T17:47:09.690Z,10.20
2017-12-22T17:49:45.870Z,10.10
2017-12-22T17:52:21.933Z,10.10
2017-12-22T17:55:00.538Z,10.10
2017-12-22T17:57:34.039Z,10.10
2017-12-22T18:00:04.307Z,10.10
2017-12-22T18:02:35.774Z,10.10
2017-12-22T18:09:02.788Z,10.10
2017-12-22T18:11:34.634Z,10.10
2017-12-22T18:14:08.745Z,10.00
2017-12-22T18:16:44.804Z,10.00
2017-12-22T18:19:19.740Z,10.00
2017-12-22T18:22:30.113Z,10.00
2017-12-22T18:25:00.449Z,10.00
2017-12-22T18:27:31.925Z,10.00
2017-12-22T18:30:04.660Z,10.10
2017-12-22T18:32:40.199Z,10.00
2017-12-22T18:35:10.796Z,10.10
2017-12-22T18:37:46.162Z,10.10
2017-12-22T18:40:18.868Z,10.00
2017-12-22T18:42:50.036Z,10.00
2017-12-22T18:45:24.318Z,10.00
2017-12-22T18:47:57.476Z,10.00
2017-12-22T18:51:07.718Z,10.00
2017-12-22T18:53:39.700Z,9.90
2017-12-22T18:56:10.823Z,9.90
2017-12-22T18:58:45.667Z,9.90
2017-12-22T19:01:21.931Z,9.90
2017-12-22T19:03:57.985Z,9.90
2017-12-22T19:06:31.112Z,9.90
2017-12-22T19:09:07.137Z,9.90
2017-12-22T19:11:43.777Z,9.90
2017-12-22T19:14:21.073Z,9.90
2017-12-22T19:16:52.632Z,9.90
2017-12-22T19:19:27.975Z,9.90
2017-12-22T19:22:01.170Z,9.90
2017-12-22T19:24:35.752Z,9.90
2017-12-22T19:27:07.003Z,9.90
2017-12-22T19:29:47.595Z,9.90
2017-12-22T19:32:22.078Z,9.90
2017-12-22T19:34:54.733Z,9.90
2017-12-22T19:41:09.992Z,9.90
2017-12-22T19:43:44.461Z,9.90
2017-12-22T19:46:19.431Z,9.90
2017-12-22T19:48:56.097Z,9.90
2017-12-22T20:02:15.589Z,9.90
2017-12-22T20:04:45.317Z,9.80
2017-12-22T20:10:40.820Z,9.80
2017-12-22T20:13:16.168Z,9.80
2017-12-22T20:15:53.844Z,9.80
2017-12-22T20:18:31.002Z,9.80
2017-12-22T20:21:04.513Z,9.80
2017-12-22T20:27:06.553Z,9.80
2017-12-22T20:29:53.573Z,9.80
2017-12-22T20:32:30.821Z,9.80
2017-12-22T20:35:07.345Z,9.80
2017-12-22T20:37:58.280Z,9.70
2017-12-22T20:40:30.443Z,9.70
2017-12-22T20:43:01.499Z,9.70
2017-12-22T20:48:19.915Z,9.70
2017-12-22T20:50:49.035Z,9.70
2017-12-22T20:53:18.306Z,9.70
2017-12-22T20:55:52.489Z,9.70
2017-12-22T20:58:27.118Z,9.70
2017-12-22T21:01:03.176Z,9.70
2017-12-22T21:03:35.624Z,9.70
2017-12-22T21:06:19.171Z,9.70
2017-12-22T21:08:54.747Z,9.70
2017-12-22T21:11:32.990Z,9.70
2017-12-22T21:14:03.928Z,9.80
2017-12-22T21:16:33.717Z,9.80
2017-12-22T21:19:14.459Z,9.70
2017-12-22T21:21:52.217Z,9.80
2017-12-22T21:24:23.282Z,9.80
2017-12-22T21:26:56.879Z,9.70
2017-12-22T21:29:30.267Z,9.80
2017-12-22T21:32:08.984Z,9.80
2017-12-22T21:34:44.188Z,9.80
2017-12-22T21:37:15.700Z,9.80
2017-12-22T21:47:16.255Z,9.80
2017-12-22T21:50:01.827Z,9.80
2017-12-22T21:52:42.499Z,9.80
2017-12-22T21:55:17.733Z,9.80
2017-12-22T21:58:00.104Z,9.80
2017-12-22T22:00:34.258Z,9.90
2017-12-22T22:03:04.943Z,10.00
2017-12-22T22:05:50.505Z,9.90
2017-12-22T22:08:22.191Z,9.90
2017-12-22T22:10:52.908Z,9.80
2017-12-22T22:13:24.356Z,9.80
2017-12-22T22:16:05.911Z,9.80
2017-12-22T22:18:40.336Z,9.80
2017-12-22T22:21:25.743Z,9.90
2017-12-22T22:24:10.530Z,9.90
2017-12-22T22:26:43.032Z,9.90
2017-12-22T22:29:16.165Z,10.00
2017-12-22T22:31:52.780Z,9.90
2017-12-22T22:34:25.816Z,9.90
2017-12-22T22:37:03.698Z,9.90
2017-12-22T22:39:38.536Z,10.00
2017-12-22T22:42:12.549Z,10.00
2017-12-22T22:44:47.628Z,10.00
2017-12-22T22:47:19.349Z,10.00
2017-12-22T22:49:53.186Z,9.90
2017-12-22T22:52:25.062Z,10.00
2017-12-22T22:54:58.367Z,10.00
2017-12-22T22:57:34.010Z,10.00
2017-12-22T23:00:11.421Z,9.90
2017-12-22T23:02:46.095Z,9.90
2017-12-22T23:05:18.365Z,10.00
2017-12-22T23:07:52.086Z,10.00
2017-12-22T23:17:58.320Z,9.80
2017-12-22T23:20:33.208Z,9.70
2017-12-22T23:23:06.477Z,9.70
2017-12-22T23:29:43.363Z,9.80
2017-12-22T23:32:13.644Z,9.80
2017-12-22T23:34:48.867Z,9.80
2017-12-22T23:37:23.711Z,9.80
2017-12-22T23:39:55.852Z,9.80
2017-12-22T23:42:30.498Z,9.80
2017-12-22T23:45:01.280Z,9.80
2017-12-22T23:47:33.859Z,9.80
2017-12-22T23:50:09.334Z,9.70
2017-12-22T23:52:46.304Z,9.80
2017-12-22T23:55:22.208Z,9.80
2017-12-22T23:58:01.060Z,9.80
